Lame Deer, Montana
Current Conditions -  °F | °C
As of 5:53 PM on Friday 28 Nov 2014 (Local Time) from KSHR Reporting Station
Clear Clear  
Wind Chill: 53°   Ceiling: Unl
Heat Index: 53°   Visibility: 10mi
Dew Point: 22°   Wind: 5mph
Humidity: 30%   Direction: 100°E
Pressure: 29.52"   Gusts: NA
Location:  45.63°N, 106.67°W
Report Text: KSHR 290053Z AUTO 10004KT 10SM CLR 12/M06 A2952 RMK AO2 SLP986 T01171056 TSNO
Loading
Personal Weather Stations






























Interactive Weather Map New forecast layout! Learn more

10-Day Weather Forecast

Advertisements
Track Severe Weather on mobile